VG03 weather

Chesapeake Energy Center Heliport
Chesapeake, Virginia, United States

Public forecast

Using degrees Fahrenheit for public forecast. Weather courtesy of forecast.io.

METAR (pilot weather report)

Closest report is Chesapeake Regional Airport, 6.4 nm (11.8 km) S. Retrieved 2019/04/22 21:35 UTC (19 minutes ago):

KCPK 222135Z AUTO 28006KT 7SM CLR 22/07 A3007 RMK AO2 T02150074

TAF (pilot weather forecast)

Closest forecast is Norfolk International Airport, 8.9 nm (16.4 km) NNE. Retrieved 2019/04/22 18:39 UTC (3 hours ago):

TAF KORF 221736Z 2218/2318 34008KT P6SM SCT060 FM222300 30004KT P6SM SKC FM230400 22003KT P6SM SKC FM231400 26007KT P6SM SKC